Peotone Weather

Nearby METAR Reports

 

KIGQ - Lansing, Illinois, USA
Distance from station: NE 19mi, 30km
Updated: Mon, 20-May-2019 4:15am CDT
Overcast
Overcast
 Wind from W
Wind: W 7 mph , 11 km/h
Temperature: 54°F , 12°C
Dew Point: 46°F , 8°C
Humidity: 77%
Barometer: 29.89 inHg , 1012.2 hPa
Clouds: Overcast
Visibility: 10 miles , 16 km
Cloud details: Mostly cloudy 2300 ft
Mostly cloudy 2900 ft
Overcast 3400 ft
2019/05/20 09:15 KIGQ 200915Z AUTO 28006KT 10SM BKN023 BKN029 OVC034 12/08 A2989 RMK AO2 T01200082
KIKK - Kankakee, Illinois, USA
Distance from station: S 19mi, 30km
Updated: Mon, 20-May-2019 4:15am CDT
Clear
Clear
 Wind from W
Wind: W 13 mph , 20 km/h
Temperature: 52°F , 11°C
Dew Point: 46°F , 8°C
Humidity: 82%
Barometer: 29.93 inHg , 1013.5 hPa
Clouds: Clear
Visibility: 10 miles , 16 km
2019/05/20 09:15 KIKK 200915Z AUTO 28011KT 10SM CLR 11/08 A2993 RMK AO2 T01050081
 
KSJC - Joliet, Illinois, USA
Distance from station: WNW 24mi, 38km
Updated: Mon, 20-May-2019 4:17am CDT
Mostly cloudy
Mostly cloudy
 Wind from SSW
Wind: SSW 5 mph , 7 km/h
Temperature: 52°F , 11°C
Dew Point: 52°F , 11°C
Humidity: 100%
Barometer: 29.90 inHg , 1012.5 hPa
Clouds: Mostly cloudy
Visibility: 10 miles , 16 km
Cloud details: Mostly cloudy 600 ft
2019/05/20 09:17 KSJC 200917Z AUTO 20004KT 10SM BKN006 11/11 A2990 RMK AO2 T01060106 $
KLOT - Romeoville, Illinois, USA
Distance from station: NW 26mi, 41km
Updated: Mon, 20-May-2019 4:15am CDT
Overcast
Overcast
 Wind from WNW
Wind: WNW 10 mph , 17 km/h
Temperature: 50°F , 10°C
Wind Chill: 46°F , 8°C
Dew Point: 46°F , 8°C
Humidity: 88%
Barometer: 29.90 inHg , 1012.5 hPa
Clouds: Overcast
Visibility: 10 miles , 16 km
Cloud details: Partly cloudy 1500 ft
Partly cloudy 2800 ft
Overcast 3400 ft
2019/05/20 09:15 KLOT 200915Z AUTO 30009KT 10SM SCT015 SCT028 OVC034 10/08 A2990 RMK AO2 T01030081
 
KMDW - Midway Airport Chicago, Illinois, USA
Distance from station: N 31mi, 50km
Updated: Mon, 20-May-2019 4:15am CDT
Overcast
Overcast
 Wind from W
Wind: W 8 mph , 13 km/h
Temperature: 52°F , 11°C
Dew Point: 46°F , 8°C
Humidity: 82%
Barometer: 29.88 inHg , 1011.9 hPa
Clouds: Overcast
Visibility: 10 miles , 16 km
Cloud details: Few Clouds 2000 ft
Partly cloudy 2700 ft
Overcast 3300 ft
2019/05/20 09:15 KMDW 200915Z 27007KT 10SM FEW020 SCT027 OVC033 11/08 A2988 RMK AO2 T01110078 $
KC09 - Morris, Illinois, USA
Distance from station: W 34mi, 54km
Updated: Mon, 20-May-2019 4:15am CDT
Overcast
Overcast
 Wind from W
Wind: W 10 mph , 17 km/h
Temperature: 52°F , 11°C
Dew Point: 48°F , 9°C
Humidity: 88%
Barometer: 29.91 inHg , 1012.9 hPa
Clouds: Overcast
Visibility: 10 miles , 16 km
Cloud details: Overcast 3400 ft
2019/05/20 09:15 KC09 200915Z AUTO 27009KT 10SM OVC034 11/09 A2991 RMK AO2 T01050092

Metar display script from Saratoga-Weather.org